createdAt,value
2022-12-11T00:02:06.904Z,0.90
2022-12-11T00:04:37.547Z,0.80
2022-12-11T00:07:07.769Z,0.80
2022-12-11T00:09:35.982Z,0.80
2022-12-11T00:12:07.478Z,0.90
2022-12-11T00:14:36.078Z,0.90
2022-12-11T00:17:05.033Z,0.80
2022-12-11T00:19:33.595Z,0.80
2022-12-11T00:22:01.704Z,0.80
2022-12-11T00:24:29.962Z,0.80
2022-12-11T00:26:58.383Z,0.80
2022-12-11T00:29:30.407Z,0.80
2022-12-11T00:31:58.620Z,0.70
2022-12-11T00:34:27.404Z,0.70
2022-12-11T00:36:59.065Z,0.70
2022-12-11T00:39:27.309Z,0.80
2022-12-11T00:41:55.585Z,0.80
2022-12-11T00:44:26.286Z,0.80
2022-12-11T00:46:57.951Z,0.80
2022-12-11T00:49:26.114Z,0.80
2022-12-11T00:56:24.518Z,0.80
2022-12-11T00:58:53.186Z,0.80
2022-12-11T01:01:23.540Z,0.80
2022-12-11T01:03:55.785Z,0.80
2022-12-11T01:06:26.175Z,0.80
2022-12-11T01:09:10.989Z,0.80
2022-12-11T01:11:39.535Z,0.80
2022-12-11T01:14:07.959Z,0.80
2022-12-11T01:16:36.093Z,0.80
2022-12-11T01:19:07.813Z,0.80
2022-12-11T01:21:35.940Z,0.80
2022-12-11T01:24:04.109Z,0.80
2022-12-11T01:26:32.263Z,0.80
2022-12-11T01:29:02.669Z,0.80
2022-12-11T01:31:33.712Z,0.70
2022-12-11T01:34:01.911Z,0.70
2022-12-11T01:36:33.440Z,0.70
2022-12-11T01:39:01.658Z,0.70
2022-12-11T01:41:29.854Z,0.60
2022-12-11T01:44:03.574Z,0.60
2022-12-11T01:46:33.754Z,0.60
2022-12-11T01:49:03.653Z,0.60
2022-12-11T01:51:39.125Z,0.50
2022-12-11T01:54:12.530Z,0.60
2022-12-11T01:56:43.262Z,0.60
2022-12-11T01:59:12.155Z,0.60
2022-12-11T02:01:47.027Z,0.60
2022-12-11T02:04:17.049Z,0.60
2022-12-11T02:06:50.866Z,0.60
2022-12-11T02:09:22.826Z,0.50
2022-12-11T02:12:02.393Z,0.50
2022-12-11T02:14:39.650Z,0.40
2022-12-11T02:17:14.523Z,0.40
2022-12-11T02:19:59.045Z,0.40
2022-12-11T02:22:54.703Z,0.30
2022-12-11T02:25:29.509Z,0.40
2022-12-11T02:28:18.460Z,0.40
2022-12-11T02:30:51.342Z,0.40
2022-12-11T02:33:24.486Z,0.40
2022-12-11T02:35:55.534Z,0.40
2022-12-11T02:38:28.526Z,0.40
2022-12-11T02:40:58.867Z,0.40
2022-12-11T02:43:32.048Z,0.40
2022-12-11T02:46:01.870Z,0.40
2022-12-11T02:48:31.382Z,0.40
2022-12-11T02:51:01.165Z,0.40
2022-12-11T02:53:32.328Z,0.40
2022-12-11T02:56:08.135Z,0.30
2022-12-11T02:58:40.925Z,0.30
2022-12-11T03:01:09.193Z,0.30
2022-12-11T03:03:37.341Z,0.40
2022-12-11T03:06:05.910Z,0.40
2022-12-11T03:08:34.188Z,0.40
2022-12-11T03:11:04.502Z,0.30
2022-12-11T03:13:32.658Z,0.30
2022-12-11T03:16:13.178Z,0.30
2022-12-11T03:18:47.899Z,0.30
2022-12-11T03:21:24.454Z,0.40
2022-12-11T03:24:02.852Z,0.40
2022-12-11T03:26:33.992Z,0.40
2022-12-11T03:29:05.078Z,0.40
2022-12-11T03:31:40.302Z,0.40
2022-12-11T03:34:14.950Z,0.50
2022-12-11T03:36:46.989Z,0.50
2022-12-11T03:39:20.284Z,0.50
2022-12-11T03:41:51.740Z,0.50
2022-12-11T03:44:23.789Z,0.50
2022-12-11T03:46:56.050Z,0.60
2022-12-11T03:49:29.726Z,0.50
2022-12-11T03:52:00.705Z,0.60
2022-12-11T03:54:32.391Z,0.60
2022-12-11T03:57:04.033Z,0.60
2022-12-11T03:59:32.099Z,0.60
2022-12-11T04:02:01.768Z,0.60
2022-12-11T04:04:29.919Z,0.60
2022-12-11T04:07:00.319Z,0.60
2022-12-11T04:09:28.526Z,0.60
2022-12-11T04:11:56.638Z,0.60
2022-12-11T04:14:44.477Z,0.60
2022-12-11T04:17:34.009Z,0.60
2022-12-11T04:20:19.550Z,0.50
2022-12-11T04:23:05.066Z,0.50
2022-12-11T04:25:35.436Z,0.50
2022-12-11T04:28:03.624Z,0.60
2022-12-11T04:30:34.323Z,0.60
2022-12-11T04:33:04.081Z,0.60
2022-12-11T04:35:34.502Z,0.60
2022-12-11T04:38:02.721Z,0.60
2022-12-11T04:40:31.006Z,0.60
2022-12-11T04:42:59.288Z,0.60
2022-12-11T04:45:27.346Z,0.60
2022-12-11T04:47:57.727Z,0.60
2022-12-11T04:50:27.507Z,0.60
2022-12-11T04:52:56.917Z,0.60
2022-12-11T04:55:25.368Z,0.60
2022-12-11T04:57:55.531Z,0.60
2022-12-11T05:00:25.653Z,0.60
2022-12-11T05:02:56.134Z,0.60
2022-12-11T05:05:24.261Z,0.60
2022-12-11T05:07:56.293Z,0.60
2022-12-11T05:10:24.805Z,0.60
2022-12-11T05:12:55.430Z,0.60
2022-12-11T05:15:23.503Z,0.60
2022-12-11T05:17:53.964Z,0.60
2022-12-11T05:20:24.460Z,0.60
2022-12-11T05:22:52.583Z,0.70
2022-12-11T05:25:24.380Z,0.70
2022-12-11T05:27:54.567Z,0.70
2022-12-11T05:30:22.876Z,0.60
2022-12-11T05:32:51.002Z,0.60
2022-12-11T05:35:19.168Z,0.60
2022-12-11T05:37:47.425Z,0.60
2022-12-11T05:40:18.209Z,0.70
2022-12-11T05:42:47.654Z,0.60
2022-12-11T05:45:15.739Z,0.70
2022-12-11T05:47:45.983Z,0.70
2022-12-11T05:50:14.041Z,0.70
2022-12-11T05:52:44.662Z,0.70
2022-12-11T05:55:12.981Z,0.70
2022-12-11T05:57:43.649Z,0.70
2022-12-11T06:00:14.094Z,0.70
2022-12-11T06:02:42.430Z,0.70
2022-12-11T06:05:13.298Z,0.70
2022-12-11T06:07:41.582Z,0.70
2022-12-11T06:10:11.123Z,0.70
2022-12-11T06:12:39.326Z,0.70
2022-12-11T06:15:08.615Z,0.70
2022-12-11T06:17:40.667Z,0.70
2022-12-11T06:20:11.786Z,0.70
2022-12-11T06:22:39.940Z,0.70
2022-12-11T06:25:09.711Z,0.70
2022-12-11T06:27:40.261Z,0.70
2022-12-11T06:30:09.843Z,0.70
2022-12-11T06:32:38.071Z,0.70
2022-12-11T06:35:08.656Z,0.70
2022-12-11T06:37:40.582Z,0.70
2022-12-11T06:40:12.576Z,0.70
2022-12-11T06:42:43.109Z,0.70
2022-12-11T06:45:13.726Z,0.70
2022-12-11T06:47:42.102Z,0.70
2022-12-11T06:50:11.814Z,0.70
2022-12-11T06:52:39.901Z,0.80
2022-12-11T06:55:10.857Z,0.80
2022-12-11T06:57:39.502Z,0.80
2022-12-11T07:00:08.890Z,0.80
2022-12-11T07:02:39.163Z,0.80
2022-12-11T07:05:08.312Z,0.80
2022-12-11T07:07:37.832Z,0.80
2022-12-11T07:10:08.533Z,0.80
2022-12-11T07:12:37.002Z,0.70
2022-12-11T07:15:08.704Z,0.70
2022-12-11T07:17:37.096Z,0.70
2022-12-11T07:20:09.243Z,0.70
2022-12-11T07:22:44.627Z,0.70
2022-12-11T07:25:17.006Z,0.70
2022-12-11T07:27:47.330Z,0.70
2022-12-11T07:30:15.571Z,0.70
2022-12-11T07:32:44.653Z,0.80
2022-12-11T07:35:12.925Z,0.80
2022-12-11T07:37:43.070Z,0.80
2022-12-11T07:40:14.519Z,0.80
2022-12-11T07:42:46.139Z,0.80
2022-12-11T07:45:16.880Z,0.80
2022-12-11T07:47:47.124Z,0.80
2022-12-11T07:50:15.349Z,0.80
2022-12-11T07:52:44.800Z,0.80
2022-12-11T07:55:13.341Z,0.80
2022-12-11T07:57:41.758Z,0.80
2022-12-11T08:00:11.589Z,0.90
2022-12-11T08:02:45.231Z,0.90
2022-12-11T08:05:15.931Z,0.90
2022-12-11T08:07:45.502Z,0.90
2022-12-11T08:10:15.967Z,0.90
2022-12-11T08:12:46.419Z,0.90
2022-12-11T08:15:16.805Z,0.90
2022-12-11T08:17:45.030Z,0.90
2022-12-11T08:20:13.195Z,0.90
2022-12-11T08:22:41.341Z,0.90
2022-12-11T08:25:11.285Z,0.90
2022-12-11T08:27:42.045Z,0.90
2022-12-11T08:30:11.580Z,0.90
2022-12-11T08:32:42.249Z,0.90
2022-12-11T08:35:11.101Z,0.90
2022-12-11T08:37:41.694Z,0.90
2022-12-11T08:40:12.343Z,0.90
2022-12-11T08:42:40.438Z,0.90
2022-12-11T08:45:11.598Z,0.90
2022-12-11T08:47:40.027Z,0.90
2022-12-11T08:50:08.476Z,0.90
2022-12-11T08:52:36.709Z,0.90
2022-12-11T08:55:05.299Z,0.90
2022-12-11T08:57:39.834Z,1.00
2022-12-11T09:00:10.182Z,1.00
2022-12-11T09:02:38.417Z,1.00
2022-12-11T09:05:09.508Z,1.00
2022-12-11T09:07:40.374Z,1.00
2022-12-11T09:10:10.645Z,1.00
2022-12-11T09:12:42.712Z,1.00
2022-12-11T09:15:11.896Z,1.00
2022-12-11T09:17:42.571Z,1.00
2022-12-11T09:20:11.212Z,1.00
2022-12-11T09:22:42.790Z,1.00
2022-12-11T09:25:11.465Z,1.00
2022-12-11T09:27:39.720Z,1.00
2022-12-11T09:30:10.725Z,1.00
2022-12-11T09:32:41.298Z,1.10
2022-12-11T09:35:11.353Z,1.00
2022-12-11T09:37:39.933Z,1.10
2022-12-11T09:40:12.547Z,1.10
2022-12-11T09:42:52.014Z,1.10
2022-12-11T09:45:22.225Z,1.10
2022-12-11T09:47:53.180Z,1.10
2022-12-11T09:50:25.199Z,1.10
2022-12-11T09:53:06.508Z,1.10
2022-12-11T09:55:43.257Z,1.10
2022-12-11T09:58:24.136Z,1.10
2022-12-11T10:01:00.459Z,1.10
2022-12-11T10:03:52.140Z,1.10
2022-12-11T10:06:26.639Z,1.10
2022-12-11T10:09:07.190Z,1.10
2022-12-11T10:12:00.153Z,1.10
2022-12-11T10:14:41.458Z,1.20
2022-12-11T10:17:13.675Z,1.10
2022-12-11T10:19:42.962Z,1.10
2022-12-11T10:22:19.764Z,1.20
2022-12-11T10:25:11.631Z,1.20
2022-12-11T10:27:41.666Z,1.20
2022-12-11T10:30:24.171Z,1.20
2022-12-11T10:32:58.325Z,1.20
2022-12-11T10:35:33.101Z,1.20
2022-12-11T10:38:13.674Z,1.20
2022-12-11T10:40:45.293Z,1.20
2022-12-11T10:43:14.062Z,1.20
2022-12-11T10:45:52.823Z,1.20
2022-12-11T10:48:23.712Z,1.20
2022-12-11T10:51:01.230Z,1.20
2022-12-11T10:53:30.144Z,1.20
2022-12-11T10:55:59.170Z,1.20
2022-12-11T10:58:31.844Z,1.20
2022-12-11T11:01:12.260Z,1.20
2022-12-11T11:03:55.398Z,1.30
2022-12-11T11:06:25.716Z,1.30
2022-12-11T11:08:56.167Z,1.30
2022-12-11T11:11:28.082Z,1.30
2022-12-11T11:14:14.273Z,1.30
2022-12-11T11:16:46.453Z,1.30
2022-12-11T11:19:25.665Z,1.30
2022-12-11T11:21:56.312Z,1.30
2022-12-11T11:24:29.890Z,1.30
2022-12-11T11:27:14.396Z,1.30
2022-12-11T11:29:43.505Z,1.30
2022-12-11T11:32:20.967Z,1.40
2022-12-11T11:34:50.455Z,1.40
2022-12-11T11:37:29.722Z,1.40
2022-12-11T11:40:04.284Z,1.40
2022-12-11T11:42:44.509Z,1.40
2022-12-11T11:45:17.363Z,1.40
2022-12-11T11:47:53.891Z,1.40
2022-12-11T11:50:27.573Z,1.40
2022-12-11T11:53:03.408Z,1.40
2022-12-11T11:55:42.199Z,1.40
2022-12-11T11:58:16.444Z,1.40
2022-12-11T12:00:44.622Z,1.40
2022-12-11T12:03:15.256Z,1.40
2022-12-11T12:05:55.009Z,1.50
2022-12-11T12:08:39.041Z,1.50
2022-12-11T12:11:13.800Z,1.40
2022-12-11T12:13:51.986Z,1.50
2022-12-11T12:16:52.237Z,1.50
2022-12-11T12:19:38.199Z,1.50
2022-12-11T12:22:19.374Z,1.50
2022-12-11T12:24:54.156Z,1.50
2022-12-11T12:27:51.607Z,1.50
2022-12-11T12:30:22.797Z,1.50
2022-12-11T12:33:08.953Z,1.50
2022-12-11T12:35:38.921Z,1.50
2022-12-11T12:38:17.463Z,1.50
2022-12-11T12:40:56.680Z,1.50
2022-12-11T12:43:49.284Z,1.50
2022-12-11T12:46:30.190Z,1.50
2022-12-11T12:49:01.248Z,1.50
2022-12-11T12:51:29.974Z,1.50
2022-12-11T12:54:03.872Z,1.50
2022-12-11T12:56:35.100Z,1.50
2022-12-11T12:59:05.433Z,1.50
2022-12-11T13:01:36.037Z,1.50
2022-12-11T13:04:06.706Z,1.50
2022-12-11T13:06:38.838Z,1.50
2022-12-11T13:09:18.053Z,1.50
2022-12-11T13:11:47.237Z,1.50
2022-12-11T13:14:31.749Z,1.50
2022-12-11T13:17:27.269Z,1.50
2022-12-11T13:20:23.276Z,1.50
2022-12-11T13:23:11.391Z,1.50
2022-12-11T13:25:50.808Z,1.50
2022-12-11T13:28:34.408Z,1.50
2022-12-11T13:31:27.855Z,1.50
2022-12-11T13:33:58.154Z,1.50
2022-12-11T13:36:32.551Z,1.50
2022-12-11T13:39:04.640Z,1.50
2022-12-11T13:41:37.597Z,1.50
2022-12-11T13:44:07.603Z,1.50
2022-12-11T13:46:38.326Z,1.50
2022-12-11T13:49:09.692Z,1.50
2022-12-11T13:51:40.315Z,1.50
2022-12-11T13:54:17.540Z,1.50
2022-12-11T13:56:59.273Z,1.50
2022-12-11T13:59:31.128Z,1.50
2022-12-11T14:02:03.989Z,1.50
2022-12-11T14:04:35.829Z,1.60
2022-12-11T14:07:08.720Z,1.50
2022-12-11T14:09:40.383Z,1.60
2022-12-11T14:12:18.664Z,1.60
2022-12-11T14:14:53.291Z,1.60
2022-12-11T14:17:26.866Z,1.60
2022-12-11T14:20:00.371Z,1.60
2022-12-11T14:22:30.567Z,1.50
2022-12-11T14:25:03.454Z,1.50
2022-12-11T14:27:32.944Z,1.50
2022-12-11T14:30:12.404Z,1.50
2022-12-11T14:32:45.634Z,1.50
2022-12-11T14:35:24.304Z,1.50
2022-12-11T14:37:53.444Z,1.50
2022-12-11T14:40:25.519Z,1.50
2022-12-11T14:43:03.044Z,1.50
2022-12-11T14:45:36.301Z,1.50
2022-12-11T14:48:10.720Z,1.50
2022-12-11T14:50:43.969Z,1.50
2022-12-11T14:53:16.692Z,1.50
2022-12-11T14:55:44.942Z,1.50
2022-12-11T14:58:21.742Z,1.50
2022-12-11T15:01:04.515Z,1.50
2022-12-11T15:03:36.150Z,1.50
2022-12-11T15:06:26.564Z,1.50
2022-12-11T15:08:57.681Z,1.50
2022-12-11T15:11:33.048Z,1.50
2022-12-11T15:14:05.633Z,1.50
2022-12-11T15:16:40.604Z,1.50
2022-12-11T15:19:21.092Z,1.50
2022-12-11T15:21:52.198Z,1.50
2022-12-11T15:24:29.569Z,1.50
2022-12-11T15:27:01.715Z,1.50
2022-12-11T15:29:36.093Z,1.50
2022-12-11T15:32:18.598Z,1.50
2022-12-11T15:34:51.138Z,1.50
2022-12-11T15:37:23.216Z,1.50
2022-12-11T15:39:51.689Z,1.50
2022-12-11T15:42:27.434Z,1.50
2022-12-11T15:45:06.905Z,1.50
2022-12-11T15:47:35.014Z,1.50
2022-12-11T15:50:09.143Z,1.50
2022-12-11T15:52:37.548Z,1.50
2022-12-11T15:55:06.287Z,1.50
2022-12-11T15:57:35.030Z,1.40
2022-12-11T16:00:07.413Z,1.50
2022-12-11T16:02:35.766Z,1.50
2022-12-11T16:05:06.512Z,1.50
2022-12-11T16:07:35.323Z,1.50
2022-12-11T16:10:03.505Z,1.50
2022-12-11T16:12:31.691Z,1.50
2022-12-11T16:14:59.949Z,1.50
2022-12-11T16:17:32.336Z,1.50
2022-12-11T16:20:02.591Z,1.50
2022-12-11T16:22:31.172Z,1.50
2022-12-11T16:25:00.328Z,1.50
2022-12-11T16:27:28.492Z,1.50
2022-12-11T16:29:56.732Z,1.50
2022-12-11T16:32:24.853Z,1.50
2022-12-11T16:34:59.902Z,1.50
2022-12-11T16:37:28.061Z,1.50
2022-12-11T16:39:56.472Z,1.50
2022-12-11T16:42:24.613Z,1.50
2022-12-11T16:44:52.655Z,1.50
2022-12-11T16:47:21.022Z,1.50
2022-12-11T16:49:49.169Z,1.50
2022-12-11T16:52:22.076Z,1.50
2022-12-11T16:54:50.632Z,1.50
2022-12-11T16:57:18.772Z,1.50
2022-12-11T16:59:49.297Z,1.50
2022-12-11T17:02:19.787Z,1.50
2022-12-11T17:04:53.644Z,1.50
2022-12-11T17:07:26.214Z,1.50
2022-12-11T17:09:54.368Z,1.50
2022-12-11T17:12:27.719Z,1.50
2022-12-11T17:14:58.217Z,1.50
2022-12-11T17:17:26.638Z,1.50
2022-12-11T17:19:54.774Z,1.50
2022-12-11T17:22:27.759Z,1.40
2022-12-11T17:24:58.695Z,1.40
2022-12-11T17:27:27.098Z,1.40
2022-12-11T17:29:55.534Z,1.40
2022-12-11T17:32:23.895Z,1.40
2022-12-11T17:34:52.191Z,1.40
2022-12-11T17:37:22.017Z,1.40
2022-12-11T17:39:54.084Z,1.40
2022-12-11T17:42:22.297Z,1.40
2022-12-11T17:44:50.615Z,1.40
2022-12-11T17:47:19.460Z,1.40
2022-12-11T17:49:50.007Z,1.40
2022-12-11T17:52:18.292Z,1.40
2022-12-11T17:54:49.114Z,1.40
2022-12-11T17:57:18.571Z,1.40
2022-12-11T17:59:46.821Z,1.40
2022-12-11T18:02:15.451Z,1.40
2022-12-11T18:04:43.607Z,1.40
2022-12-11T18:07:11.729Z,1.40
2022-12-11T18:09:41.304Z,1.40
2022-12-11T18:12:10.299Z,1.40
2022-12-11T18:14:39.781Z,1.40
2022-12-11T18:17:10.349Z,1.40
2022-12-11T18:19:44.432Z,1.40
2022-12-11T18:22:16.829Z,1.40
2022-12-11T18:24:47.271Z,1.30
2022-12-11T18:27:15.539Z,1.30
2022-12-11T18:29:45.037Z,1.30
2022-12-11T18:32:15.235Z,1.30
2022-12-11T18:34:45.574Z,1.30
2022-12-11T18:37:16.324Z,1.30
2022-12-11T18:39:44.395Z,1.40
2022-12-11T18:45:05.176Z,1.40
2022-12-11T18:47:33.472Z,1.30
2022-12-11T18:50:07.429Z,1.40
2022-12-11T18:52:36.381Z,1.30
2022-12-11T18:55:07.625Z,1.30
2022-12-11T18:57:38.083Z,1.30
2022-12-11T19:00:09.110Z,1.30
2022-12-11T19:02:37.182Z,1.30
2022-12-11T19:05:05.722Z,1.30
2022-12-11T19:07:34.860Z,1.30
2022-12-11T19:10:03.280Z,1.30
2022-12-11T19:12:34.424Z,1.30
2022-12-11T19:15:05.212Z,1.30
2022-12-11T19:17:34.903Z,1.30
2022-12-11T19:20:25.057Z,1.30
2022-12-11T19:22:53.802Z,1.30
2022-12-11T19:25:21.977Z,1.30
2022-12-11T19:27:50.456Z,1.30
2022-12-11T19:30:20.825Z,1.30
2022-12-11T19:32:50.449Z,1.30
2022-12-11T19:35:20.928Z,1.30
2022-12-11T19:37:51.611Z,1.30
2022-12-11T19:40:26.098Z,1.30
2022-12-11T19:42:54.739Z,1.30
2022-12-11T19:45:22.863Z,1.30
2022-12-11T19:47:54.688Z,1.30
2022-12-11T19:50:22.877Z,1.30
2022-12-11T19:52:51.052Z,1.30
2022-12-11T19:55:21.512Z,1.30
2022-12-11T19:57:52.687Z,1.30
2022-12-11T20:00:21.031Z,1.30
2022-12-11T20:02:51.280Z,1.30
2022-12-11T20:05:20.748Z,1.30
2022-12-11T20:07:48.915Z,1.30
2022-12-11T20:10:19.367Z,1.30
2022-12-11T20:12:49.691Z,1.30
2022-12-11T20:15:19.770Z,1.30
2022-12-11T20:17:47.910Z,1.30
2022-12-11T20:20:16.155Z,1.30
2022-12-11T20:22:45.630Z,1.30
2022-12-11T20:25:14.235Z,1.30
2022-12-11T20:27:42.676Z,1.30
2022-12-11T20:30:13.121Z,1.30
2022-12-11T20:32:41.409Z,1.30
2022-12-11T20:35:11.260Z,1.30
2022-12-11T20:37:39.648Z,1.30
2022-12-11T20:40:10.226Z,1.30
2022-12-11T20:42:38.348Z,1.30
2022-12-11T20:45:10.824Z,1.30
2022-12-11T20:47:39.266Z,1.30
2022-12-11T20:50:11.120Z,1.30
2022-12-11T20:52:39.900Z,1.30
2022-12-11T20:55:12.181Z,1.30
2022-12-11T20:57:44.888Z,1.30
2022-12-11T21:00:14.683Z,1.30
2022-12-11T21:02:44.608Z,1.20
2022-12-11T21:05:13.025Z,1.30
2022-12-11T21:07:44.552Z,1.30
2022-12-11T21:10:15.206Z,1.30
2022-12-11T21:12:45.854Z,1.30
2022-12-11T21:15:14.448Z,1.20
2022-12-11T21:17:43.042Z,1.20
2022-12-11T21:20:12.211Z,1.20
2022-12-11T21:22:40.494Z,1.20
2022-12-11T21:25:11.756Z,1.20
2022-12-11T21:27:41.389Z,1.20
2022-12-11T21:30:10.047Z,1.20
2022-12-11T21:32:39.047Z,1.20
2022-12-11T21:35:10.652Z,1.20
2022-12-11T21:37:43.781Z,1.20
2022-12-11T21:40:15.684Z,1.20
2022-12-11T21:42:47.496Z,1.20
2022-12-11T21:48:03.969Z,1.20
2022-12-11T21:50:32.403Z,1.20
2022-12-11T21:53:02.046Z,1.20
2022-12-11T21:55:30.533Z,1.20
2022-12-11T21:58:00.084Z,1.20
2022-12-11T22:00:29.001Z,1.20
2022-12-11T22:02:57.149Z,1.20
2022-12-11T22:05:25.539Z,1.20
2022-12-11T22:07:55.984Z,1.20
2022-12-11T22:10:24.276Z,1.20
2022-12-11T22:12:52.410Z,1.20
2022-12-11T22:15:22.068Z,1.10
2022-12-11T22:17:50.251Z,1.10
2022-12-11T22:20:20.653Z,1.20
2022-12-11T22:22:48.761Z,1.10
2022-12-11T22:25:19.694Z,1.10
2022-12-11T22:27:47.826Z,1.20
2022-12-11T22:30:18.185Z,1.20
2022-12-11T22:32:47.817Z,1.20
2022-12-11T22:35:16.109Z,1.20
2022-12-11T22:37:44.382Z,1.20
2022-12-11T22:40:15.365Z,1.20
2022-12-11T22:42:45.511Z,1.20
2022-12-11T22:45:14.057Z,1.20
2022-12-11T22:47:42.490Z,1.20
2022-12-11T22:50:14.784Z,1.20
2022-12-11T22:52:45.708Z,1.20
2022-12-11T22:55:16.147Z,1.20
2022-12-11T22:57:44.348Z,1.20
2022-12-11T23:00:14.570Z,1.20
2022-12-11T23:02:42.918Z,1.20
2022-12-11T23:05:15.069Z,1.20
2022-12-11T23:07:45.454Z,1.20
2022-12-11T23:10:13.784Z,1.20
2022-12-11T23:12:44.341Z,1.20
2022-12-11T23:15:14.839Z,1.20
2022-12-11T23:17:43.176Z,1.20
2022-12-11T23:20:12.046Z,1.20
2022-12-11T23:22:41.582Z,1.20
2022-12-11T23:25:13.601Z,1.20
2022-12-11T23:27:42.056Z,1.20
2022-12-11T23:30:11.268Z,1.20
2022-12-11T23:32:39.470Z,1.20
2022-12-11T23:35:10.801Z,1.20
2022-12-11T23:37:39.159Z,1.20
2022-12-11T23:40:14.181Z,1.20
2022-12-11T23:42:42.319Z,1.20
2022-12-11T23:45:11.040Z,1.20
2022-12-11T23:47:39.581Z,1.20
2022-12-11T23:50:10.563Z,1.20
2022-12-11T23:52:38.705Z,1.20
2022-12-11T23:55:11.565Z,1.20
2022-12-11T23:57:42.042Z,1.20
